METAR Data
IDs: Format: Raw Decoded Include TAF

Data at: 1440 UTC 21 Apr 2021

METAR for:KOOA (Oskaloosa Muni, IA, US)
Text:KOOA 211435Z AUTO 33006KT 10SM SCT070 SCT110 06/M06 A3019 RMK AO2 T00611065
Temperature: 6.1°C ( 43°F)
Dewpoint: -6.5°C ( 20°F) [RH = 40%]
Pressure (altimeter):30.19 inches Hg (1022.4 mb)
Winds:from the NNW (330 degrees) at 7 MPH (6 knots; 3.1 m/s)
Visibility:10 or more sm (16+ km)
Ceiling:at least 12,000 feet AGL
Clouds: scattered clouds at 7000 feet AGL, scattered clouds at 11000 feet AGL
QC Flag:automated observation with no human augmentation